Santa Cruz, CA (95060)

5:28 AM PST on December 05, 2016 (GMT -0800)
| | Change Station

Elev -9999 ft 0.00 °N, 0.00 °E | Updated

Cloudy
Cloudy
42 °F
Feels Like 40 °F
N
5
Wind Variable Wind from NNE
Gusts mph

Today
High -- | Low -- °F
--% Chance of Precip.
Yesterday
High -- | Low -- °F
Precip. -- in
Pressure 30.09 in
Visibility 10.0 miles
Clouds Mostly Cloudy 1700 ft
Windchill 40 °F
Dew Point 42 °F
Humidity 98%
Rainfall --
Snow Depth Not available.
7:07 AM 4:51 PM
Waxing Crescent, 31% visible
SPECI KWVI 051315Z AUTO 00000KT 10SM BKN017 06/06 A3009 RMK AO2 T00560056
Pressure 30.09 in
Visibility 10.0 miles
Clouds Mostly Cloudy 1700 ft
Windchill 40 °F
Dew Point 42 °F
Humidity 98%
Rainfall --
Snow Depth Not available.
7:07 AM 4:51 PM
Waxing Crescent, 31% visible
SPECI KWVI 051315Z AUTO 00000KT 10SM BKN017 06/06 A3009 RMK AO2 T00560056

10-Day Weather Forecast

Almanac

Astronomy

Dec. 05, 2016 Rise Set
Actual Time
Civil Twilight
Nautical Twilight
Astronomical Twilight
Moon
Length of Visible Light
Length of Day
Tomorrow will be .
, % of the Moon is Illuminated

Today's Extremes

State Highs State Lows

Community

WunderPhotos

Upload Photos

1,955,780 photos uploaded!

WunderBlog® & News

Nearby

Air Quality

  Air Quality AQ Index Pollutant
Not available.

Snow Depth

Station Depth Elevation

Earthquake Activity

City Distance Mag. Time & Date
Minimum magnitude displayed is 2.5.

Coastal Water Temperatures

Place Temperature

Stations

Nearby Weather Stations

Station Location Temp. Windchill Dew Point Humidity Wind Precip. Elev Updated Type
                   

Watches & Warnings

There are currently no watches in effect.